sensor_id;sensor_type;location;lat;lon;timestamp;pressure;altitude;pressure_sealevel;temperature;humidity
60479;BME280;46321;48.398;11.754;2023-08-07T00:00:02;96175.94;;;11.78;74.27
60479;BME280;46321;48.398;11.754;2023-08-07T00:02:27;96177.81;;;11.84;74.15
60479;BME280;46321;48.398;11.754;2023-08-07T00:04:53;96176.41;;;11.88;73.79
60479;BME280;46321;48.398;11.754;2023-08-07T00:07:18;96186.69;;;11.76;74.40
60479;BME280;46321;48.398;11.754;2023-08-07T00:09:43;96189.91;;;11.72;75.27
60479;BME280;46321;48.398;11.754;2023-08-07T00:12:08;96186.00;;;11.67;75.72
60479;BME280;46321;48.398;11.754;2023-08-07T00:14:34;96183.50;;;11.59;75.56
60479;BME280;46321;48.398;11.754;2023-08-07T00:16:59;96189.00;;;11.57;76.58
60479;BME280;46321;48.398;11.754;2023-08-07T00:19:24;96192.97;;;11.68;76.17
60479;BME280;46321;48.398;11.754;2023-08-07T00:21:49;96184.56;;;11.65;76.17
60479;BME280;46321;48.398;11.754;2023-08-07T00:24:14;96184.19;;;11.68;76.44
60479;BME280;46321;48.398;11.754;2023-08-07T00:26:40;96191.09;;;11.62;77.24
60479;BME280;46321;48.398;11.754;2023-08-07T00:29:05;96190.56;;;11.52;77.59
60479;BME280;46321;48.398;11.754;2023-08-07T00:31:30;96192.84;;;11.55;78.19
60479;BME280;46321;48.398;11.754;2023-08-07T00:33:57;96186.91;;;11.53;78.01
60479;BME280;46321;48.398;11.754;2023-08-07T00:36:22;96187.66;;;11.47;77.80
60479;BME280;46321;48.398;11.754;2023-08-07T00:38:47;96186.97;;;11.38;78.96
60479;BME280;46321;48.398;11.754;2023-08-07T00:41:12;96193.47;;;11.35;78.90
60479;BME280;46321;48.398;11.754;2023-08-07T00:43:37;96180.84;;;11.37;79.40
60479;BME280;46321;48.398;11.754;2023-08-07T00:46:03;96190.34;;;11.31;79.81
60479;BME280;46321;48.398;11.754;2023-08-07T00:48:28;96198.13;;;11.18;81.15
60479;BME280;46321;48.398;11.754;2023-08-07T00:50:54;96198.88;;;11.11;81.51
60479;BME280;46321;48.398;11.754;2023-08-07T00:53:20;96194.84;;;11.16;81.33
60479;BME280;46321;48.398;11.754;2023-08-07T00:55:45;96198.44;;;11.08;81.92
60479;BME280;46321;48.398;11.754;2023-08-07T00:58:11;96189.25;;;11.04;82.51
60479;BME280;46321;48.398;11.754;2023-08-07T01:00:36;96194.84;;;11.16;82.37
60479;BME280;46321;48.398;11.754;2023-08-07T01:03:04;96198.19;;;11.03;83.20
60479;BME280;46321;48.398;11.754;2023-08-07T01:05:30;96203.22;;;10.97;83.79
60479;BME280;46321;48.398;11.754;2023-08-07T01:07:55;96202.50;;;10.88;84.08
60479;BME280;46321;48.398;11.754;2023-08-07T01:10:25;96195.81;;;10.77;85.26
60479;BME280;46321;48.398;11.754;2023-08-07T01:12:52;96196.56;;;10.71;85.65
60479;BME280;46321;48.398;11.754;2023-08-07T01:15:25;96201.84;;;10.86;85.44
60479;BME280;46321;48.398;11.754;2023-08-07T01:17:52;96210.53;;;10.80;85.99
60479;BME280;46321;48.398;11.754;2023-08-07T01:20:18;96207.44;;;10.76;86.67
60479;BME280;46321;48.398;11.754;2023-08-07T01:22:44;96199.84;;;10.73;86.82
60479;BME280;46321;48.398;11.754;2023-08-07T01:25:09;96209.00;;;10.71;87.32
60479;BME280;46321;48.398;11.754;2023-08-07T01:27:45;96208.91;;;10.79;87.02
60479;BME280;46321;48.398;11.754;2023-08-07T01:30:17;96213.16;;;10.80;86.87
60479;BME280;46321;48.398;11.754;2023-08-07T01:33:04;96187.75;;;10.64;88.13
60479;BME280;46321;48.398;11.754;2023-08-07T01:35:29;96200.88;;;10.72;87.57
60479;BME280;46321;48.398;11.754;2023-08-07T01:37:55;96208.72;;;10.65;87.95
60479;BME280;46321;48.398;11.754;2023-08-07T01:40:21;96198.56;;;10.69;87.99
60479;BME280;46321;48.398;11.754;2023-08-07T01:42:46;96210.09;;;10.61;88.26
60479;BME280;46321;48.398;11.754;2023-08-07T01:45:12;96207.53;;;10.68;87.83
60479;BME280;46321;48.398;11.754;2023-08-07T01:47:37;96204.88;;;10.68;87.86
60479;BME280;46321;48.398;11.754;2023-08-07T01:50:02;96201.31;;;10.61;88.09
60479;BME280;46321;48.398;11.754;2023-08-07T01:52:28;96208.19;;;10.70;88.44
60479;BME280;46321;48.398;11.754;2023-08-07T01:54:53;96211.81;;;10.69;88.18
60479;BME280;46321;48.398;11.754;2023-08-07T01:57:18;96210.34;;;10.51;88.66
60479;BME280;46321;48.398;11.754;2023-08-07T01:59:43;96211.50;;;10.49;89.02
60479;BME280;46321;48.398;11.754;2023-08-07T02:02:09;96210.00;;;10.55;88.63
60479;BME280;46321;48.398;11.754;2023-08-07T02:04:34;96216.00;;;10.48;89.43
60479;BME280;46321;48.398;11.754;2023-08-07T02:07:00;96201.09;;;10.47;89.06
60479;BME280;46321;48.398;11.754;2023-08-07T02:09:25;96211.38;;;10.50;89.51
60479;BME280;46321;48.398;11.754;2023-08-07T02:11:50;96215.44;;;10.53;89.36
60479;BME280;46321;48.398;11.754;2023-08-07T02:14:15;96218.09;;;10.53;89.52
60479;BME280;46321;48.398;11.754;2023-08-07T02:16:40;96221.94;;;10.50;89.58
60479;BME280;46321;48.398;11.754;2023-08-07T02:19:06;96230.78;;;10.58;89.45
60479;BME280;46321;48.398;11.754;2023-08-07T02:21:31;96226.88;;;10.53;89.22
60479;BME280;46321;48.398;11.754;2023-08-07T02:23:56;96223.56;;;10.51;89.11
60479;BME280;46321;48.398;11.754;2023-08-07T02:26:22;96233.28;;;10.59;89.30
60479;BME280;46321;48.398;11.754;2023-08-07T02:28:47;96228.34;;;10.56;89.32
60479;BME280;46321;48.398;11.754;2023-08-07T02:31:12;96236.59;;;10.38;90.26
60479;BME280;46321;48.398;11.754;2023-08-07T02:33:37;96236.88;;;10.43;89.91
60479;BME280;46321;48.398;11.754;2023-08-07T02:36:02;96245.16;;;10.40;89.84
60479;BME280;46321;48.398;11.754;2023-08-07T02:38:27;96239.22;;;10.38;90.51
60479;BME280;46321;48.398;11.754;2023-08-07T02:40:53;96248.44;;;10.42;90.01
60479;BME280;46321;48.398;11.754;2023-08-07T02:43:18;96253.47;;;10.37;90.23
60479;BME280;46321;48.398;11.754;2023-08-07T02:45:43;96251.06;;;10.50;89.52
60479;BME280;46321;48.398;11.754;2023-08-07T02:48:08;96243.63;;;10.46;89.92
60479;BME280;46321;48.398;11.754;2023-08-07T02:50:33;96254.13;;;10.39;90.23
60479;BME280;46321;48.398;11.754;2023-08-07T02:52:59;96251.81;;;10.36;90.46
60479;BME280;46321;48.398;11.754;2023-08-07T02:55:24;96254.13;;;10.39;90.07
60479;BME280;46321;48.398;11.754;2023-08-07T02:57:49;96256.28;;;10.35;90.30
60479;BME280;46321;48.398;11.754;2023-08-07T03:00:15;96261.66;;;10.42;89.82
60479;BME280;46321;48.398;11.754;2023-08-07T03:02:40;96253.56;;;10.44;90.01
60479;BME280;46321;48.398;11.754;2023-08-07T03:05:05;96252.75;;;10.43;89.89
60479;BME280;46321;48.398;11.754;2023-08-07T03:07:30;96253.72;;;10.42;89.82
60479;BME280;46321;48.398;11.754;2023-08-07T03:09:56;96260.47;;;10.29;90.47
60479;BME280;46321;48.398;11.754;2023-08-07T03:12:21;96257.81;;;10.29;90.66
60479;BME280;46321;48.398;11.754;2023-08-07T03:14:46;96267.50;;;10.37;89.87
60479;BME280;46321;48.398;11.754;2023-08-07T03:17:11;96260.13;;;10.33;90.67
60479;BME280;46321;48.398;11.754;2023-08-07T03:19:36;96268.34;;;10.38;90.27
60479;BME280;46321;48.398;11.754;2023-08-07T03:22:02;96270.00;;;10.39;89.88
60479;BME280;46321;48.398;11.754;2023-08-07T03:24:27;96276.66;;;10.35;90.34
60479;BME280;46321;48.398;11.754;2023-08-07T03:26:52;96275.81;;;10.34;90.25
60479;BME280;46321;48.398;11.754;2023-08-07T03:29:17;96269.88;;;10.32;90.14
60479;BME280;46321;48.398;11.754;2023-08-07T03:31:42;96270.72;;;10.33;90.55
60479;BME280;46321;48.398;11.754;2023-08-07T03:34:07;96284.94;;;10.31;90.31
60479;BME280;46321;48.398;11.754;2023-08-07T03:36:33;96278.34;;;10.27;90.66
60479;BME280;46321;48.398;11.754;2023-08-07T03:38:58;96271.88;;;10.30;90.03
60479;BME280;46321;48.398;11.754;2023-08-07T03:41:23;96281.94;;;10.35;89.87
60479;BME280;46321;48.398;11.754;2023-08-07T03:43:49;96285.22;;;10.37;89.51
60479;BME280;46321;48.398;11.754;2023-08-07T03:46:14;96284.28;;;10.29;90.18
60479;BME280;46321;48.398;11.754;2023-08-07T03:48:39;96288.81;;;10.21;90.32
60479;BME280;46321;48.398;11.754;2023-08-07T03:51:05;96287.66;;;10.23;90.37
60479;BME280;46321;48.398;11.754;2023-08-07T03:53:30;96299.06;;;10.24;90.25
60479;BME280;46321;48.398;11.754;2023-08-07T03:55:55;96297.41;;;10.23;90.42
60479;BME280;46321;48.398;11.754;2023-08-07T03:58:20;96299.31;;;10.29;90.02
60479;BME280;46321;48.398;11.754;2023-08-07T04:00:46;96309.88;;;10.14;90.13
60479;BME280;46321;48.398;11.754;2023-08-07T04:03:11;96304.34;;;10.24;89.96
60479;BME280;46321;48.398;11.754;2023-08-07T04:05:36;96296.13;;;10.18;90.40
60479;BME280;46321;48.398;11.754;2023-08-07T04:08:01;96308.16;;;10.21;90.12
60479;BME280;46321;48.398;11.754;2023-08-07T04:10:26;96302.81;;;10.29;90.00
60479;BME280;46321;48.398;11.754;2023-08-07T04:12:52;96311.19;;;10.33;89.59
60479;BME280;46321;48.398;11.754;2023-08-07T04:15:17;96311.69;;;10.37;89.01
60479;BME280;46321;48.398;11.754;2023-08-07T04:17:42;96314.84;;;10.32;89.41
60479;BME280;46321;48.398;11.754;2023-08-07T04:20:07;96305.25;;;10.31;88.55
60479;BME280;46321;48.398;11.754;2023-08-07T04:22:33;96310.09;;;10.27;88.85
60479;BME280;46321;48.398;11.754;2023-08-07T04:24:58;96315.50;;;10.34;88.58
60479;BME280;46321;48.398;11.754;2023-08-07T04:27:24;96311.38;;;10.31;88.43
60479;BME280;46321;48.398;11.754;2023-08-07T04:29:50;96295.84;;;10.28;88.23
60479;BME280;46321;48.398;11.754;2023-08-07T04:32:15;96318.03;;;10.27;87.81
60479;BME280;46321;48.398;11.754;2023-08-07T04:34:40;96313.09;;;10.24;87.88
60479;BME280;46321;48.398;11.754;2023-08-07T04:37:05;96313.09;;;10.24;87.73
60479;BME280;46321;48.398;11.754;2023-08-07T04:39:31;96314.66;;;10.34;87.60
60479;BME280;46321;48.398;11.754;2023-08-07T04:41:57;96312.84;;;10.34;87.93
60479;BME280;46321;48.398;11.754;2023-08-07T04:44:22;96320.97;;;10.33;87.43
60479;BME280;46321;48.398;11.754;2023-08-07T04:46:47;96326.63;;;10.29;87.10
60479;BME280;46321;48.398;11.754;2023-08-07T04:49:12;96329.66;;;10.18;86.89
60479;BME280;46321;48.398;11.754;2023-08-07T04:51:38;96331.78;;;10.23;87.10
60479;BME280;46321;48.398;11.754;2023-08-07T04:54:03;96335.25;;;10.23;86.58
60479;BME280;46321;48.398;11.754;2023-08-07T04:56:28;96324.31;;;10.26;86.68
60479;BME280;46321;48.398;11.754;2023-08-07T04:58:53;96329.13;;;10.23;85.09
60479;BME280;46321;48.398;11.754;2023-08-07T05:01:19;96337.84;;;10.31;85.77
60479;BME280;46321;48.398;11.754;2023-08-07T05:03:44;96342.47;;;10.29;85.27
60479;BME280;46321;48.398;11.754;2023-08-07T05:06:09;96346.59;;;10.32;85.23
60479;BME280;46321;48.398;11.754;2023-08-07T05:08:34;96348.06;;;10.35;85.08
60479;BME280;46321;48.398;11.754;2023-08-07T05:10:59;96349.41;;;10.30;84.91
60479;BME280;46321;48.398;11.754;2023-08-07T05:13:24;96351.72;;;10.34;84.75
60479;BME280;46321;48.398;11.754;2023-08-07T05:15:50;96351.00;;;10.40;84.04
60479;BME280;46321;48.398;11.754;2023-08-07T05:18:15;96347.06;;;10.36;84.62
60479;BME280;46321;48.398;11.754;2023-08-07T05:20:41;96348.06;;;10.35;84.14
60479;BME280;46321;48.398;11.754;2023-08-07T05:23:06;96357.00;;;10.34;83.84
60479;BME280;46321;48.398;11.754;2023-08-07T05:25:31;96358.47;;;10.36;83.33
60479;BME280;46321;48.398;11.754;2023-08-07T05:27:56;96349.19;;;10.40;83.15
60479;BME280;46321;48.398;11.754;2023-08-07T05:30:21;96345.69;;;10.40;83.03
60479;BME280;46321;48.398;11.754;2023-08-07T05:32:47;96356.28;;;10.40;83.14
60479;BME280;46321;48.398;11.754;2023-08-07T05:35:12;96349.47;;;10.46;82.49
60479;BME280;46321;48.398;11.754;2023-08-07T05:37:37;96363.84;;;10.51;82.39
60479;BME280;46321;48.398;11.754;2023-08-07T05:40:03;96360.53;;;10.49;82.92
60479;BME280;46321;48.398;11.754;2023-08-07T05:42:28;96365.94;;;10.56;82.19
60479;BME280;46321;48.398;11.754;2023-08-07T05:44:53;96369.78;;;10.53;82.27
60479;BME280;46321;48.398;11.754;2023-08-07T05:47:18;96362.66;;;10.54;81.71
60479;BME280;46321;48.398;11.754;2023-08-07T05:49:44;96369.97;;;10.52;81.84
60479;BME280;46321;48.398;11.754;2023-08-07T05:52:09;96372.78;;;10.50;82.40
60479;BME280;46321;48.398;11.754;2023-08-07T05:54:34;96370.41;;;10.56;81.52
60479;BME280;46321;48.398;11.754;2023-08-07T05:56:59;96380.84;;;10.57;81.55
60479;BME280;46321;48.398;11.754;2023-08-07T05:59:24;96370.53;;;10.62;81.39
60479;BME280;46321;48.398;11.754;2023-08-07T06:01:50;96376.19;;;10.59;81.21
60479;BME280;46321;48.398;11.754;2023-08-07T06:04:16;96388.34;;;10.69;80.80
60479;BME280;46321;48.398;11.754;2023-08-07T06:06:41;96383.72;;;10.71;80.56
60479;BME280;46321;48.398;11.754;2023-08-07T06:09:07;96387.53;;;10.68;80.76
60479;BME280;46321;48.398;11.754;2023-08-07T06:11:32;96392.00;;;10.68;79.52
60479;BME280;46321;48.398;11.754;2023-08-07T06:13:58;96399.75;;;10.69;79.20
60479;BME280;46321;48.398;11.754;2023-08-07T06:16:23;96396.38;;;10.75;79.19
60479;BME280;46321;48.398;11.754;2023-08-07T06:18:48;96402.81;;;10.81;78.60
60479;BME280;46321;48.398;11.754;2023-08-07T06:21:13;96395.06;;;10.80;78.35
60479;BME280;46321;48.398;11.754;2023-08-07T06:23:39;96402.53;;;10.91;77.88
60479;BME280;46321;48.398;11.754;2023-08-07T06:26:04;96396.72;;;10.96;77.77
60479;BME280;46321;48.398;11.754;2023-08-07T06:28:32;96402.66;;;10.98;77.00
60479;BME280;46321;48.398;11.754;2023-08-07T06:31:05;96410.88;;;11.03;77.51
60479;BME280;46321;48.398;11.754;2023-08-07T06:33:30;96404.13;;;11.01;77.56
60479;BME280;46321;48.398;11.754;2023-08-07T06:35:56;96411.06;;;11.02;77.30
60479;BME280;46321;48.398;11.754;2023-08-07T06:38:22;96404.22;;;11.07;76.47
60479;BME280;46321;48.398;11.754;2023-08-07T06:40:47;96414.47;;;11.10;76.16
60479;BME280;46321;48.398;11.754;2023-08-07T06:43:12;96421.59;;;11.10;75.21
60479;BME280;46321;48.398;11.754;2023-08-07T06:48:31;96424.53;;;11.30;74.89
60479;BME280;46321;48.398;11.754;2023-08-07T06:50:56;96428.91;;;11.38;74.87
60479;BME280;46321;48.398;11.754;2023-08-07T06:53:22;96427.00;;;11.32;74.23
60479;BME280;46321;48.398;11.754;2023-08-07T06:55:47;96417.63;;;11.44;74.64
60479;BME280;46321;48.398;11.754;2023-08-07T06:58:12;96427.63;;;11.49;73.88
60479;BME280;46321;48.398;11.754;2023-08-07T07:00:37;96411.28;;;11.61;73.71
60479;BME280;46321;48.398;11.754;2023-08-07T07:03:03;96417.69;;;11.66;73.62
60479;BME280;46321;48.398;11.754;2023-08-07T07:05:28;96427.63;;;11.79;73.85
60479;BME280;46321;48.398;11.754;2023-08-07T07:07:55;96428.91;;;11.84;72.75
60479;BME280;46321;48.398;11.754;2023-08-07T07:10:20;96430.75;;;11.83;72.59
60479;BME280;46321;48.398;11.754;2023-08-07T07:12:45;96429.91;;;11.98;72.48
60479;BME280;46321;48.398;11.754;2023-08-07T07:15:11;96426.06;;;12.16;72.58
60479;BME280;46321;48.398;11.754;2023-08-07T07:17:36;96425.44;;;12.35;72.21
60479;BME280;46321;48.398;11.754;2023-08-07T07:20:01;96438.09;;;12.33;70.40
60479;BME280;46321;48.398;11.754;2023-08-07T07:22:26;96430.41;;;12.61;71.12
60479;BME280;46321;48.398;11.754;2023-08-07T07:24:53;96437.41;;;12.68;70.46
60479;BME280;46321;48.398;11.754;2023-08-07T07:27:19;96444.56;;;12.68;68.74
60479;BME280;46321;48.398;11.754;2023-08-07T07:29:44;96447.97;;;12.84;68.61
60479;BME280;46321;48.398;11.754;2023-08-07T07:32:09;96444.50;;;12.83;68.58
60479;BME280;46321;48.398;11.754;2023-08-07T07:34:34;96450.56;;;12.99;67.41
60479;BME280;46321;48.398;11.754;2023-08-07T07:36:59;96457.06;;;12.96;68.04
60479;BME280;46321;48.398;11.754;2023-08-07T07:39:24;96464.91;;;13.04;67.21
60479;BME280;46321;48.398;11.754;2023-08-07T07:41:49;96458.75;;;13.04;66.51
60479;BME280;46321;48.398;11.754;2023-08-07T07:44:15;96463.75;;;13.14;67.09
60479;BME280;46321;48.398;11.754;2023-08-07T07:46:40;96469.00;;;13.07;66.51
60479;BME280;46321;48.398;11.754;2023-08-07T07:49:05;96464.06;;;13.04;66.78
60479;BME280;46321;48.398;11.754;2023-08-07T07:51:31;96470.72;;;13.15;67.43
60479;BME280;46321;48.398;11.754;2023-08-07T07:53:56;96461.97;;;13.21;66.96
60479;BME280;46321;48.398;11.754;2023-08-07T07:56:22;96485.63;;;13.45;66.46
60479;BME280;46321;48.398;11.754;2023-08-07T07:58:47;96476.03;;;13.44;64.74
60479;BME280;46321;48.398;11.754;2023-08-07T08:01:12;96473.97;;;13.39;64.75
60479;BME280;46321;48.398;11.754;2023-08-07T08:03:37;96477.59;;;13.60;65.65
60479;BME280;46321;48.398;11.754;2023-08-07T08:06:03;96473.72;;;13.62;63.69
60479;BME280;46321;48.398;11.754;2023-08-07T08:08:29;96481.53;;;13.42;62.97
60479;BME280;46321;48.398;11.754;2023-08-07T08:10:54;96473.09;;;13.60;61.94
60479;BME280;46321;48.398;11.754;2023-08-07T08:13:19;96484.47;;;13.54;61.86
60479;BME280;46321;48.398;11.754;2023-08-07T08:15:44;96486.28;;;13.76;62.57
60479;BME280;46321;48.398;11.754;2023-08-07T08:18:10;96490.63;;;13.83;62.95
60479;BME280;46321;48.398;11.754;2023-08-07T08:20:35;96492.03;;;13.79;61.63
60479;BME280;46321;48.398;11.754;2023-08-07T08:23:00;96503.94;;;13.83;61.99
60479;BME280;46321;48.398;11.754;2023-08-07T08:25:26;96496.13;;;13.75;59.88
60479;BME280;46321;48.398;11.754;2023-08-07T08:27:51;96489.19;;;13.81;60.39
60479;BME280;46321;48.398;11.754;2023-08-07T08:30:16;96488.34;;;13.80;60.21
60479;BME280;46321;48.398;11.754;2023-08-07T08:32:42;96492.63;;;13.74;61.01
60479;BME280;46321;48.398;11.754;2023-08-07T08:35:07;96500.41;;;13.76;60.22
60479;BME280;46321;48.398;11.754;2023-08-07T08:37:33;96499.97;;;13.72;60.48
60479;BME280;46321;48.398;11.754;2023-08-07T08:39:58;96505.09;;;13.74;60.40
60479;BME280;46321;48.398;11.754;2023-08-07T08:42:23;96505.00;;;13.60;60.32
60479;BME280;46321;48.398;11.754;2023-08-07T08:44:52;96513.75;;;13.83;60.33
60479;BME280;46321;48.398;11.754;2023-08-07T08:47:18;96523.97;;;13.79;60.62
60479;BME280;46321;48.398;11.754;2023-08-07T08:49:47;96527.66;;;13.85;60.99
60479;BME280;46321;48.398;11.754;2023-08-07T08:52:12;96523.00;;;13.94;59.19
60479;BME280;46321;48.398;11.754;2023-08-07T08:54:38;96514.66;;;13.97;59.07
60479;BME280;46321;48.398;11.754;2023-08-07T08:57:05;96522.66;;;14.04;60.26
60479;BME280;46321;48.398;11.754;2023-08-07T08:59:31;96524.16;;;14.13;59.33
60479;BME280;46321;48.398;11.754;2023-08-07T09:01:56;96520.09;;;14.24;59.10
60479;BME280;46321;48.398;11.754;2023-08-07T09:04:21;96521.75;;;14.25;59.86
60479;BME280;46321;48.398;11.754;2023-08-07T09:06:47;96518.72;;;14.35;58.95
60479;BME280;46321;48.398;11.754;2023-08-07T09:09:12;96526.06;;;14.26;58.81
60479;BME280;46321;48.398;11.754;2023-08-07T09:11:38;96542.06;;;14.33;58.17
60479;BME280;46321;48.398;11.754;2023-08-07T09:14:04;96521.44;;;14.49;58.98
60479;BME280;46321;48.398;11.754;2023-08-07T09:16:30;96536.00;;;14.53;59.51
60479;BME280;46321;48.398;11.754;2023-08-07T09:18:55;96529.25;;;14.57;58.38
60479;BME280;46321;48.398;11.754;2023-08-07T09:21:20;96541.53;;;14.51;58.55
60479;BME280;46321;48.398;11.754;2023-08-07T09:23:46;96536.72;;;14.33;58.26
60479;BME280;46321;48.398;11.754;2023-08-07T09:26:11;96535.50;;;14.29;59.22
60479;BME280;46321;48.398;11.754;2023-08-07T09:28:36;96536.13;;;14.38;58.07
60479;BME280;46321;48.398;11.754;2023-08-07T09:31:05;96545.06;;;14.23;58.19
60479;BME280;46321;48.398;11.754;2023-08-07T09:33:30;96538.47;;;14.12;58.27
60479;BME280;46321;48.398;11.754;2023-08-07T09:35:59;96547.31;;;14.19;57.19
60479;BME280;46321;48.398;11.754;2023-08-07T09:38:28;96544.22;;;14.16;57.71
60479;BME280;46321;48.398;11.754;2023-08-07T09:40:57;96523.75;;;14.16;57.33
60479;BME280;46321;48.398;11.754;2023-08-07T09:43:22;96542.53;;;14.08;57.13
60479;BME280;46321;48.398;11.754;2023-08-07T09:45:47;96546.94;;;14.29;57.27
60479;BME280;46321;48.398;11.754;2023-08-07T09:48:15;96548.38;;;14.32;57.34
60479;BME280;46321;48.398;11.754;2023-08-07T09:50:40;96544.38;;;14.50;57.68
60479;BME280;46321;48.398;11.754;2023-08-07T09:53:05;96550.38;;;14.65;57.72
60479;BME280;46321;48.398;11.754;2023-08-07T09:55:30;96558.19;;;14.74;57.78
60479;BME280;46321;48.398;11.754;2023-08-07T09:57:56;96549.44;;;14.87;57.71
60479;BME280;46321;48.398;11.754;2023-08-07T10:00:21;96544.06;;;14.80;57.44
60479;BME280;46321;48.398;11.754;2023-08-07T10:02:47;96543.44;;;14.78;57.26
60479;BME280;46321;48.398;11.754;2023-08-07T10:05:13;96550.59;;;14.71;55.17
60479;BME280;46321;48.398;11.754;2023-08-07T10:07:39;96550.88;;;15.03;56.42
60479;BME280;46321;48.398;11.754;2023-08-07T10:10:05;96532.28;;;15.44;54.31
60479;BME280;46321;48.398;11.754;2023-08-07T10:12:31;96536.38;;;15.67;54.96
60479;BME280;46321;48.398;11.754;2023-08-07T10:14:56;96543.97;;;15.84;54.39
60479;BME280;46321;48.398;11.754;2023-08-07T10:17:23;96538.03;;;15.61;52.90
60479;BME280;46321;48.398;11.754;2023-08-07T10:19:50;96540.88;;;15.26;52.70
60479;BME280;46321;48.398;11.754;2023-08-07T10:22:15;96542.91;;;15.03;52.62
60479;BME280;46321;48.398;11.754;2023-08-07T10:24:42;96547.84;;;15.06;53.50
60479;BME280;46321;48.398;11.754;2023-08-07T10:27:09;96555.19;;;14.91;53.55
60479;BME280;46321;48.398;11.754;2023-08-07T10:29:34;96557.38;;;14.80;54.61
60479;BME280;46321;48.398;11.754;2023-08-07T10:32:01;96558.47;;;14.93;54.39
60479;BME280;46321;48.398;11.754;2023-08-07T10:34:30;96557.03;;;14.90;54.74
60479;BME280;46321;48.398;11.754;2023-08-07T10:40:03;96566.06;;;14.96;54.34
60479;BME280;46321;48.398;11.754;2023-08-07T10:42:41;96554.56;;;14.95;54.95
60479;BME280;46321;48.398;11.754;2023-08-07T10:45:16;96543.28;;;14.86;55.14
60479;BME280;46321;48.398;11.754;2023-08-07T10:47:41;96554.63;;;15.22;55.06
60479;BME280;46321;48.398;11.754;2023-08-07T10:50:06;96552.50;;;16.20;55.58
60479;BME280;46321;48.398;11.754;2023-08-07T10:52:32;96544.19;;;16.94;53.01
60479;BME280;46321;48.398;11.754;2023-08-07T10:54:57;96552.47;;;17.19;52.97
60479;BME280;46321;48.398;11.754;2023-08-07T10:57:22;96542.69;;;17.38;50.62
60479;BME280;46321;48.398;11.754;2023-08-07T10:59:51;96538.44;;;17.56;50.87
60479;BME280;46321;48.398;11.754;2023-08-07T11:02:26;96546.94;;;17.71;49.06
60479;BME280;46321;48.398;11.754;2023-08-07T11:04:52;96540.34;;;17.48;48.86
60479;BME280;46321;48.398;11.754;2023-08-07T11:07:24;96547.97;;;17.70;49.34
60479;BME280;46321;48.398;11.754;2023-08-07T11:09:50;96540.00;;;17.63;49.14
60479;BME280;46321;48.398;11.754;2023-08-07T11:12:15;96535.31;;;17.59;50.15
60479;BME280;46321;48.398;11.754;2023-08-07T11:14:40;96541.53;;;17.78;49.01
60479;BME280;46321;48.398;11.754;2023-08-07T11:17:06;96537.91;;;17.66;49.19
60479;BME280;46321;48.398;11.754;2023-08-07T11:19:31;96527.84;;;17.87;48.37
60479;BME280;46321;48.398;11.754;2023-08-07T11:21:57;96541.78;;;17.95;47.77
60479;BME280;46321;48.398;11.754;2023-08-07T11:24:22;96539.03;;;18.02;49.06
60479;BME280;46321;48.398;11.754;2023-08-07T11:26:47;96533.13;;;18.19;48.69
60479;BME280;46321;48.398;11.754;2023-08-07T11:29:16;96536.19;;;17.97;47.69
60479;BME280;46321;48.398;11.754;2023-08-07T11:31:41;96537.59;;;17.55;48.62
60479;BME280;46321;48.398;11.754;2023-08-07T11:34:06;96535.00;;;17.48;48.60
60479;BME280;46321;48.398;11.754;2023-08-07T11:36:32;96542.16;;;16.90;49.37
60479;BME280;46321;48.398;11.754;2023-08-07T11:38:58;96558.09;;;16.71;49.19
60479;BME280;46321;48.398;11.754;2023-08-07T11:41:23;96549.53;;;16.55;50.03
60479;BME280;46321;48.398;11.754;2023-08-07T11:43:49;96564.00;;;16.80;50.86
60479;BME280;46321;48.398;11.754;2023-08-07T11:46:14;96559.50;;;17.13;50.88
60479;BME280;46321;48.398;11.754;2023-08-07T11:48:40;96563.59;;;17.22;49.67
60479;BME280;46321;48.398;11.754;2023-08-07T11:51:06;96554.84;;;17.01;48.95
60479;BME280;46321;48.398;11.754;2023-08-07T11:53:32;96590.25;;;16.90;49.84
60479;BME280;46321;48.398;11.754;2023-08-07T11:56:00;96565.84;;;17.19;47.54
60479;BME280;46321;48.398;11.754;2023-08-07T11:58:26;96553.94;;;17.47;47.05
60479;BME280;46321;48.398;11.754;2023-08-07T12:00:52;96570.38;;;17.25;47.02
60479;BME280;46321;48.398;11.754;2023-08-07T12:03:23;96574.00;;;17.31;46.19
60479;BME280;46321;48.398;11.754;2023-08-07T12:05:50;96585.53;;;17.31;46.54
60479;BME280;46321;48.398;11.754;2023-08-07T12:08:15;96574.84;;;17.57;46.28
60479;BME280;46321;48.398;11.754;2023-08-07T12:10:40;96569.25;;;17.65;44.90
60479;BME280;46321;48.398;11.754;2023-08-07T12:13:07;96573.47;;;17.73;45.10
60479;BME280;46321;48.398;11.754;2023-08-07T12:15:33;96579.75;;;17.85;46.18
60479;BME280;46321;48.398;11.754;2023-08-07T12:18:01;96572.66;;;18.17;46.26
60479;BME280;46321;48.398;11.754;2023-08-07T12:20:27;96575.59;;;18.34;46.14
60479;BME280;46321;48.398;11.754;2023-08-07T12:22:52;96563.16;;;18.40;45.44
60479;BME280;46321;48.398;11.754;2023-08-07T12:25:17;96577.03;;;18.37;44.96
60479;BME280;46321;48.398;11.754;2023-08-07T12:27:43;96581.16;;;18.14;45.64
60479;BME280;46321;48.398;11.754;2023-08-07T12:30:08;96577.03;;;18.37;45.85
60479;BME280;46321;48.398;11.754;2023-08-07T12:32:33;96584.84;;;18.38;45.89
60479;BME280;46321;48.398;11.754;2023-08-07T12:34:58;96587.59;;;18.31;47.26
60479;BME280;46321;48.398;11.754;2023-08-07T12:37:24;96588.47;;;18.25;46.53
60479;BME280;46321;48.398;11.754;2023-08-07T12:39:49;96581.63;;;18.04;45.72
60479;BME280;46321;48.398;11.754;2023-08-07T12:42:14;96590.66;;;18.10;45.43
60479;BME280;46321;48.398;11.754;2023-08-07T12:44:39;96584.97;;;17.99;46.16
60479;BME280;46321;48.398;11.754;2023-08-07T12:47:04;96594.44;;;18.02;47.74